Alpena County Regional Airport
KAPN : now visible

Airfield :











YOU CAN JOIN US ON...

 
LOGIN :

Register | Disclaimer

   EN    FR    IT 

 









Legend :    VFR   Marginal VFR   IFR   Intensive IFR   Very Intensive IFR
Visi :
Ceiling :
>= 8 km
>= 3000ft
5 to 8 km
1000 to 3000 ft
1500m to 5 km
500 to 1000 ft
800 to 1500m
200 to 500 ft
< 800m
< 200 ft
Symbols :   Thunderstorms  Fog  Heavy snow  Heavy precipitations  Wind > 20 kt






- Airport Elevation : 690 ft
- IATA code : APN


KAPN - Alpena County Regional

CURRENT METAR :
  • 311454Z 17011G18KT 10SM SCT032 01/M04 A3032 RMK AO2 SLP278 T00111039 58014

EXPIRED METARs :
  • 311354Z 17006KT 10SM BKN032 M02/M05 A3036 RMK AO2 SLP290 T10171050
  • 311254Z 19006KT 10SM CLR M03/M06 A3036 RMK AO2 SLP292 T10331061

TAF KAPN
Valid from the 31 at 12:00 until the 01 at 12:00 UTC


311129Z 3112/0112 19005KT P6SM SCT035
FM311700 19012G21KT P6SM FEW250
FM010500 21014G28KT P6SM OVC060 WS020/21050KT
FM010600 21013G27KT 6SM -SHRA BR OVC040 WS020/22045KT
FM010900 25010G22KT P6SM OVC011
KZMP FIR / North America



MET'MAP, your aeronautical weather chart ! - Copyright ORBIFLY December 2007 - Disclaimer

ORBIFLY MET'MAP TEAM :

Programming & Development : Alexandra Zaïnal
Concept & original design : Baudouin d'Aumeries
Assistance for programming : Marc-Olivier Méhu
Technical & hardware support : Manuel Goepfert

Contact : metmap@orbifly.com




SOURCES & CREDITS :

   NOAA       Earth
Advisory